SZT weather

CLOSED San Cristobal de las Casas Airport
San Cristobal de las Casas, Chiapas, Mexico

Public forecast

Using degrees Celsius for public forecast. Weather courtesy of forecast.io.

Closest aviation weather report (METAR) to San Cristobal de las Casas Airport

Report is more than 2 hours old.

Closest report is Angel Albino Corzo International Airport, 29.3 nm (54.3 km) WSW. Retrieved 2019/12/08 04:45 UTC (3 hours ago):

MMTG 080445Z 30008KT 10SM SKC 22/17 A3014

Closest aviation forecast (TAF) to San Cristobal de las Casas Airport

Closest forecast is Angel Albino Corzo International Airport, 29.3 nm (54.3 km) WSW. Retrieved 2019/12/08 06:25 UTC (1 hour ago):

TAF MMTG 080418Z 0806/0906 30006KT P6SM SCT030 TEMPO 0811/0815 1 1/2SM BR HZ SCT012 FM081800 32015KT P6SM SCT030 FM090500 30006KT P6SM SCT250